KMSY/MSY METAR and TAF weather

Enter ICAO airport designator
Station Type Date Time Source
KMSY METAR 2022/01/27 23:53 UTC NOAA

KMSY 272353Z 00000KT 10SM FEW085 SCT250 12/04 A3018 RMK AO2 SLP223 T01220039 10150 20122 53000


Station Type Date Time Source
KMSY Decoded METAR 2022/01/27 23:53 UTC NOAA

NEW ORLEANS INTERNATIONAL AIRPORT, LA, United States (KMSY) 30-00N 90-15W 5M
Jan 27, 2022 - 06:53 PM EST / 2022.01.27 2353 UTC
Wind: Calm:0
Visibility: 10 mile(s):0
Sky conditions: partly cloudy
Temperature: 54.0 F (12.2 C)
Dew Point: 39.0 F (3.9 C)
Relative Humidity: 56%
Pressure (altimeter): 30.18 in. Hg (1022 hPa)
Pressure tendency: 0.00 inches (0.0 hPa) higher than three hours ago
ob: KMSY 272353Z 00000KT 10SM FEW085 SCT250 12/04 A3018 RMK AO2 SLP223 T01220039 10150 20122 53000
cycle: 0

Station Type Date Time Source
KMSY TAF 2022/01/27 18:22 UTC NOAA

TAF KMSY 271720Z 2718/2824 33004KT P6SM FEW250
FM281500 35011G19KT P6SM FEW250
FM282100 33013G21KT P6SM FEW250

Example: see airport list